sensor_id;sensor_type;location;lat;lon;timestamp;P1;durP1;ratioP1;P2;durP2;ratioP2
22080;SDS011;11207;59.512;18.050;2023-06-14T00:01:43;4.87;;;2.97;;
22080;SDS011;11207;59.512;18.050;2023-06-14T00:04:10;4.53;;;3.23;;
22080;SDS011;11207;59.512;18.050;2023-06-14T00:06:36;3.10;;;2.70;;
22080;SDS011;11207;59.512;18.050;2023-06-14T00:09:03;4.93;;;3.10;;
22080;SDS011;11207;59.512;18.050;2023-06-14T00:11:30;3.40;;;2.77;;
22080;SDS011;11207;59.512;18.050;2023-06-14T00:13:56;6.87;;;3.30;;
22080;SDS011;11207;59.512;18.050;2023-06-14T00:16:22;4.67;;;3.20;;
22080;SDS011;11207;59.512;18.050;2023-06-14T00:18:48;9.30;;;3.60;;
22080;SDS011;11207;59.512;18.050;2023-06-14T00:21:14;4.80;;;3.00;;
22080;SDS011;11207;59.512;18.050;2023-06-14T00:23:40;3.90;;;3.03;;
22080;SDS011;11207;59.512;18.050;2023-06-14T00:26:05;4.73;;;3.00;;
22080;SDS011;11207;59.512;18.050;2023-06-14T00:28:31;6.23;;;3.33;;
22080;SDS011;11207;59.512;18.050;2023-06-14T00:30:56;5.03;;;3.40;;
22080;SDS011;11207;59.512;18.050;2023-06-14T00:33:22;5.87;;;3.40;;
22080;SDS011;11207;59.512;18.050;2023-06-14T00:35:48;5.10;;;3.33;;
22080;SDS011;11207;59.512;18.050;2023-06-14T00:38:13;4.07;;;3.20;;
22080;SDS011;11207;59.512;18.050;2023-06-14T00:40:39;8.60;;;3.37;;
22080;SDS011;11207;59.512;18.050;2023-06-14T00:43:04;3.10;;;2.80;;
22080;SDS011;11207;59.512;18.050;2023-06-14T00:45:31;4.07;;;2.93;;
22080;SDS011;11207;59.512;18.050;2023-06-14T00:48:00;4.47;;;3.43;;
22080;SDS011;11207;59.512;18.050;2023-06-14T00:50:27;5.97;;;3.50;;
22080;SDS011;11207;59.512;18.050;2023-06-14T00:52:54;4.40;;;3.30;;
22080;SDS011;11207;59.512;18.050;2023-06-14T00:55:21;5.67;;;3.70;;
22080;SDS011;11207;59.512;18.050;2023-06-14T00:57:46;6.27;;;4.07;;
22080;SDS011;11207;59.512;18.050;2023-06-14T01:00:14;4.43;;;3.20;;
22080;SDS011;11207;59.512;18.050;2023-06-14T01:02:40;5.33;;;3.40;;
22080;SDS011;11207;59.512;18.050;2023-06-14T01:05:06;7.77;;;3.83;;
22080;SDS011;11207;59.512;18.050;2023-06-14T01:15:23;6.87;;;4.30;;
22080;SDS011;11207;59.512;18.050;2023-06-14T01:17:50;4.63;;;3.40;;
22080;SDS011;11207;59.512;18.050;2023-06-14T01:20:17;5.97;;;3.70;;
22080;SDS011;11207;59.512;18.050;2023-06-14T01:22:54;6.80;;;3.93;;
22080;SDS011;11207;59.512;18.050;2023-06-14T01:25:20;5.30;;;3.97;;
22080;SDS011;11207;59.512;18.050;2023-06-14T01:27:52;6.63;;;3.80;;
22080;SDS011;11207;59.512;18.050;2023-06-14T01:30:20;5.70;;;4.23;;
22080;SDS011;11207;59.512;18.050;2023-06-14T01:32:47;7.03;;;3.90;;
22080;SDS011;11207;59.512;18.050;2023-06-14T01:35:15;4.90;;;3.90;;
22080;SDS011;11207;59.512;18.050;2023-06-14T01:37:41;9.70;;;4.07;;
22080;SDS011;11207;59.512;18.050;2023-06-14T01:40:08;6.17;;;3.83;;
22080;SDS011;11207;59.512;18.050;2023-06-14T01:42:35;7.07;;;4.40;;
22080;SDS011;11207;59.512;18.050;2023-06-14T01:45:04;4.53;;;4.10;;
22080;SDS011;11207;59.512;18.050;2023-06-14T01:47:33;5.63;;;4.50;;
22080;SDS011;11207;59.512;18.050;2023-06-14T01:50:01;6.60;;;4.60;;
22080;SDS011;11207;59.512;18.050;2023-06-14T01:52:29;6.67;;;4.40;;
22080;SDS011;11207;59.512;18.050;2023-06-14T01:54:55;6.57;;;4.40;;
22080;SDS011;11207;59.512;18.050;2023-06-14T01:57:21;6.70;;;4.23;;
22080;SDS011;11207;59.512;18.050;2023-06-14T01:59:47;5.47;;;4.33;;
22080;SDS011;11207;59.512;18.050;2023-06-14T02:02:14;6.03;;;4.93;;
22080;SDS011;11207;59.512;18.050;2023-06-14T02:04:40;7.43;;;4.30;;
22080;SDS011;11207;59.512;18.050;2023-06-14T02:07:06;6.27;;;4.67;;
22080;SDS011;11207;59.512;18.050;2023-06-14T02:09:33;7.50;;;4.63;;
22080;SDS011;11207;59.512;18.050;2023-06-14T02:11:58;6.70;;;4.27;;
22080;SDS011;11207;59.512;18.050;2023-06-14T02:14:24;7.10;;;4.73;;
22080;SDS011;11207;59.512;18.050;2023-06-14T02:16:51;7.33;;;4.60;;
22080;SDS011;11207;59.512;18.050;2023-06-14T02:19:18;7.90;;;4.87;;
22080;SDS011;11207;59.512;18.050;2023-06-14T02:21:45;6.80;;;4.53;;
22080;SDS011;11207;59.512;18.050;2023-06-14T02:24:11;7.40;;;4.77;;
22080;SDS011;11207;59.512;18.050;2023-06-14T02:26:37;6.23;;;4.63;;
22080;SDS011;11207;59.512;18.050;2023-06-14T02:29:04;7.23;;;4.80;;
22080;SDS011;11207;59.512;18.050;2023-06-14T02:31:31;8.17;;;4.60;;
22080;SDS011;11207;59.512;18.050;2023-06-14T02:33:57;7.40;;;4.70;;
22080;SDS011;11207;59.512;18.050;2023-06-14T02:36:23;6.17;;;4.53;;
22080;SDS011;11207;59.512;18.050;2023-06-14T02:38:49;6.67;;;4.40;;
22080;SDS011;11207;59.512;18.050;2023-06-14T02:41:14;5.53;;;4.23;;
22080;SDS011;11207;59.512;18.050;2023-06-14T02:43:40;5.87;;;4.10;;
22080;SDS011;11207;59.512;18.050;2023-06-14T02:46:06;5.80;;;4.67;;
22080;SDS011;11207;59.512;18.050;2023-06-14T02:48:32;7.40;;;4.20;;
22080;SDS011;11207;59.512;18.050;2023-06-14T02:50:57;6.10;;;4.10;;
22080;SDS011;11207;59.512;18.050;2023-06-14T02:53:23;7.17;;;3.90;;
22080;SDS011;11207;59.512;18.050;2023-06-14T02:55:49;6.73;;;4.10;;
22080;SDS011;11207;59.512;18.050;2023-06-14T02:58:14;5.80;;;4.20;;
22080;SDS011;11207;59.512;18.050;2023-06-14T03:00:41;7.53;;;4.30;;
22080;SDS011;11207;59.512;18.050;2023-06-14T03:03:07;8.87;;;4.63;;
22080;SDS011;11207;59.512;18.050;2023-06-14T03:05:38;5.17;;;4.27;;
22080;SDS011;11207;59.512;18.050;2023-06-14T03:08:12;5.07;;;4.13;;
22080;SDS011;11207;59.512;18.050;2023-06-14T03:10:44;5.40;;;4.27;;
22080;SDS011;11207;59.512;18.050;2023-06-14T03:13:14;4.60;;;4.00;;
22080;SDS011;11207;59.512;18.050;2023-06-14T03:15:41;6.17;;;4.37;;
22080;SDS011;11207;59.512;18.050;2023-06-14T03:18:07;5.00;;;4.17;;
22080;SDS011;11207;59.512;18.050;2023-06-14T03:20:34;5.80;;;3.80;;
22080;SDS011;11207;59.512;18.050;2023-06-14T03:23:02;6.60;;;4.67;;
22080;SDS011;11207;59.512;18.050;2023-06-14T03:25:30;5.67;;;3.83;;
22080;SDS011;11207;59.512;18.050;2023-06-14T03:27:56;6.60;;;4.50;;
22080;SDS011;11207;59.512;18.050;2023-06-14T03:30:22;4.93;;;4.17;;
22080;SDS011;11207;59.512;18.050;2023-06-14T03:32:48;5.87;;;3.70;;
22080;SDS011;11207;59.512;18.050;2023-06-14T03:35:13;5.50;;;4.10;;
22080;SDS011;11207;59.512;18.050;2023-06-14T03:37:42;5.07;;;4.43;;
22080;SDS011;11207;59.512;18.050;2023-06-14T03:40:09;6.47;;;4.10;;
22080;SDS011;11207;59.512;18.050;2023-06-14T03:42:36;5.23;;;4.17;;
22080;SDS011;11207;59.512;18.050;2023-06-14T03:45:02;8.53;;;4.33;;
22080;SDS011;11207;59.512;18.050;2023-06-14T03:47:27;5.20;;;4.30;;
22080;SDS011;11207;59.512;18.050;2023-06-14T03:49:53;6.77;;;3.90;;
22080;SDS011;11207;59.512;18.050;2023-06-14T03:52:19;4.57;;;3.90;;
22080;SDS011;11207;59.512;18.050;2023-06-14T03:54:47;5.57;;;4.60;;
22080;SDS011;11207;59.512;18.050;2023-06-14T03:57:12;8.77;;;4.93;;
22080;SDS011;11207;59.512;18.050;2023-06-14T03:59:38;6.43;;;4.93;;
22080;SDS011;11207;59.512;18.050;2023-06-14T04:02:04;6.90;;;4.50;;
22080;SDS011;11207;59.512;18.050;2023-06-14T04:04:29;6.30;;;4.70;;
22080;SDS011;11207;59.512;18.050;2023-06-14T04:06:56;10.70;;;4.60;;
22080;SDS011;11207;59.512;18.050;2023-06-14T04:09:23;7.10;;;5.10;;
22080;SDS011;11207;59.512;18.050;2023-06-14T04:11:50;6.00;;;4.90;;
22080;SDS011;11207;59.512;18.050;2023-06-14T04:14:17;7.83;;;4.83;;
22080;SDS011;11207;59.512;18.050;2023-06-14T04:16:44;4.73;;;4.23;;
22080;SDS011;11207;59.512;18.050;2023-06-14T04:19:11;5.13;;;4.40;;
22080;SDS011;11207;59.512;18.050;2023-06-14T04:21:36;6.13;;;4.10;;
22080;SDS011;11207;59.512;18.050;2023-06-14T04:24:02;8.23;;;4.30;;
22080;SDS011;11207;59.512;18.050;2023-06-14T04:26:28;7.30;;;4.23;;
22080;SDS011;11207;59.512;18.050;2023-06-14T04:28:55;5.13;;;4.20;;
22080;SDS011;11207;59.512;18.050;2023-06-14T04:31:22;5.93;;;4.70;;
22080;SDS011;11207;59.512;18.050;2023-06-14T04:33:51;8.07;;;4.63;;
22080;SDS011;11207;59.512;18.050;2023-06-14T04:36:18;8.10;;;4.27;;
22080;SDS011;11207;59.512;18.050;2023-06-14T04:38:44;6.20;;;4.20;;
22080;SDS011;11207;59.512;18.050;2023-06-14T04:41:11;6.40;;;4.47;;
22080;SDS011;11207;59.512;18.050;2023-06-14T04:43:37;4.63;;;4.10;;
22080;SDS011;11207;59.512;18.050;2023-06-14T04:46:04;5.03;;;3.53;;
22080;SDS011;11207;59.512;18.050;2023-06-14T04:48:31;6.63;;;4.03;;
22080;SDS011;11207;59.512;18.050;2023-06-14T04:50:57;6.00;;;4.00;;
22080;SDS011;11207;59.512;18.050;2023-06-14T04:53:23;7.63;;;4.80;;
22080;SDS011;11207;59.512;18.050;2023-06-14T04:55:48;5.97;;;3.50;;
22080;SDS011;11207;59.512;18.050;2023-06-14T04:58:15;4.40;;;3.43;;
22080;SDS011;11207;59.512;18.050;2023-06-14T05:00:41;5.00;;;3.12;;
22080;SDS011;11207;59.512;18.050;2023-06-14T05:03:08;4.73;;;3.40;;
22080;SDS011;11207;59.512;18.050;2023-06-14T05:05:40;6.15;;;3.97;;
22080;SDS011;11207;59.512;18.050;2023-06-14T05:08:09;7.03;;;4.12;;
22080;SDS011;11207;59.512;18.050;2023-06-14T05:10:35;5.93;;;4.35;;
22080;SDS011;11207;59.512;18.050;2023-06-14T05:13:01;6.22;;;4.22;;
22080;SDS011;11207;59.512;18.050;2023-06-14T05:15:26;8.98;;;4.68;;
22080;SDS011;11207;59.512;18.050;2023-06-14T05:17:54;13.33;;;4.73;;
22080;SDS011;11207;59.512;18.050;2023-06-14T05:20:21;9.00;;;4.05;;
22080;SDS011;11207;59.512;18.050;2023-06-14T05:22:54;5.80;;;4.30;;
22080;SDS011;11207;59.512;18.050;2023-06-14T05:25:21;8.02;;;4.20;;
22080;SDS011;11207;59.512;18.050;2023-06-14T05:27:47;9.23;;;4.30;;
22080;SDS011;11207;59.512;18.050;2023-06-14T05:30:13;7.97;;;4.90;;
22080;SDS011;11207;59.512;18.050;2023-06-14T05:32:40;5.12;;;4.00;;
22080;SDS011;11207;59.512;18.050;2023-06-14T05:35:06;8.63;;;4.25;;
22080;SDS011;11207;59.512;18.050;2023-06-14T05:37:32;9.50;;;3.97;;
22080;SDS011;11207;59.512;18.050;2023-06-14T05:39:58;6.05;;;3.60;;
22080;SDS011;11207;59.512;18.050;2023-06-14T05:42:23;5.62;;;3.65;;
22080;SDS011;11207;59.512;18.050;2023-06-14T05:44:49;5.97;;;3.55;;
22080;SDS011;11207;59.512;18.050;2023-06-14T05:47:15;5.22;;;4.07;;
22080;SDS011;11207;59.512;18.050;2023-06-14T05:49:41;6.78;;;4.18;;
22080;SDS011;11207;59.512;18.050;2023-06-14T05:52:08;6.55;;;3.78;;
22080;SDS011;11207;59.512;18.050;2023-06-14T05:54:35;12.20;;;3.60;;
22080;SDS011;11207;59.512;18.050;2023-06-14T05:57:00;6.03;;;3.58;;
22080;SDS011;11207;59.512;18.050;2023-06-14T05:59:27;4.50;;;3.22;;
22080;SDS011;11207;59.512;18.050;2023-06-14T06:01:53;3.97;;;3.08;;
22080;SDS011;11207;59.512;18.050;2023-06-14T06:04:18;7.57;;;3.15;;
22080;SDS011;11207;59.512;18.050;2023-06-14T06:06:45;8.43;;;3.45;;
22080;SDS011;11207;59.512;18.050;2023-06-14T06:09:11;4.53;;;3.42;;
22080;SDS011;11207;59.512;18.050;2023-06-14T06:11:39;8.85;;;3.30;;
22080;SDS011;11207;59.512;18.050;2023-06-14T06:14:05;7.45;;;3.50;;
22080;SDS011;11207;59.512;18.050;2023-06-14T06:16:30;6.45;;;3.50;;
22080;SDS011;11207;59.512;18.050;2023-06-14T06:18:56;8.85;;;3.45;;
22080;SDS011;11207;59.512;18.050;2023-06-14T06:21:22;7.47;;;3.55;;
22080;SDS011;11207;59.512;18.050;2023-06-14T06:23:47;7.00;;;3.53;;
22080;SDS011;11207;59.512;18.050;2023-06-14T06:26:13;6.45;;;3.28;;
22080;SDS011;11207;59.512;18.050;2023-06-14T06:28:38;8.95;;;3.62;;
22080;SDS011;11207;59.512;18.050;2023-06-14T06:31:04;5.15;;;3.40;;
22080;SDS011;11207;59.512;18.050;2023-06-14T06:33:30;10.25;;;4.28;;
22080;SDS011;11207;59.512;18.050;2023-06-14T06:35:56;6.37;;;3.55;;
22080;SDS011;11207;59.512;18.050;2023-06-14T06:38:22;7.93;;;3.20;;
22080;SDS011;11207;59.512;18.050;2023-06-14T06:40:47;11.32;;;3.37;;
22080;SDS011;11207;59.512;18.050;2023-06-14T06:43:13;6.90;;;3.10;;
22080;SDS011;11207;59.512;18.050;2023-06-14T06:45:39;6.03;;;3.20;;
22080;SDS011;11207;59.512;18.050;2023-06-14T06:48:05;6.07;;;3.10;;
22080;SDS011;11207;59.512;18.050;2023-06-14T06:50:30;6.00;;;3.03;;
22080;SDS011;11207;59.512;18.050;2023-06-14T06:52:56;4.32;;;3.10;;
22080;SDS011;11207;59.512;18.050;2023-06-14T06:55:22;7.50;;;3.08;;
22080;SDS011;11207;59.512;18.050;2023-06-14T06:57:48;5.60;;;3.10;;
22080;SDS011;11207;59.512;18.050;2023-06-14T07:00:15;5.90;;;2.85;;
22080;SDS011;11207;59.512;18.050;2023-06-14T07:02:41;4.10;;;3.08;;
22080;SDS011;11207;59.512;18.050;2023-06-14T07:05:07;4.25;;;3.17;;
22080;SDS011;11207;59.512;18.050;2023-06-14T07:07:33;4.30;;;2.95;;
22080;SDS011;11207;59.512;18.050;2023-06-14T07:09:59;4.93;;;3.00;;
22080;SDS011;11207;59.512;18.050;2023-06-14T07:12:25;4.32;;;2.97;;
22080;SDS011;11207;59.512;18.050;2023-06-14T07:14:51;5.78;;;2.80;;
22080;SDS011;11207;59.512;18.050;2023-06-14T07:17:16;3.45;;;2.95;;
22080;SDS011;11207;59.512;18.050;2023-06-14T07:19:42;4.72;;;2.72;;
22080;SDS011;11207;59.512;18.050;2023-06-14T07:22:08;4.50;;;2.78;;
22080;SDS011;11207;59.512;18.050;2023-06-14T07:24:33;3.62;;;2.87;;
22080;SDS011;11207;59.512;18.050;2023-06-14T07:27:01;5.75;;;3.03;;
22080;SDS011;11207;59.512;18.050;2023-06-14T07:29:28;7.03;;;3.10;;
22080;SDS011;11207;59.512;18.050;2023-06-14T07:31:53;7.03;;;3.15;;
22080;SDS011;11207;59.512;18.050;2023-06-14T07:34:19;5.40;;;2.75;;
22080;SDS011;11207;59.512;18.050;2023-06-14T07:36:45;5.75;;;3.00;;
22080;SDS011;11207;59.512;18.050;2023-06-14T07:39:11;4.95;;;3.20;;
22080;SDS011;11207;59.512;18.050;2023-06-14T07:41:37;5.32;;;2.90;;
22080;SDS011;11207;59.512;18.050;2023-06-14T07:44:02;2.90;;;2.45;;
22080;SDS011;11207;59.512;18.050;2023-06-14T07:46:28;6.37;;;3.37;;
22080;SDS011;11207;59.512;18.050;2023-06-14T07:48:55;4.22;;;2.80;;
22080;SDS011;11207;59.512;18.050;2023-06-14T07:51:20;3.17;;;2.70;;
22080;SDS011;11207;59.512;18.050;2023-06-14T07:53:47;4.28;;;3.15;;
22080;SDS011;11207;59.512;18.050;2023-06-14T07:56:13;3.90;;;3.08;;
22080;SDS011;11207;59.512;18.050;2023-06-14T07:58:39;5.18;;;2.78;;
22080;SDS011;11207;59.512;18.050;2023-06-14T08:01:05;4.70;;;2.95;;
22080;SDS011;11207;59.512;18.050;2023-06-14T08:03:33;3.15;;;2.78;;
22080;SDS011;11207;59.512;18.050;2023-06-14T08:06:02;4.87;;;2.90;;
22080;SDS011;11207;59.512;18.050;2023-06-14T08:08:29;4.00;;;2.67;;
22080;SDS011;11207;59.512;18.050;2023-06-14T08:10:55;4.10;;;2.65;;
22080;SDS011;11207;59.512;18.050;2023-06-14T08:13:21;4.50;;;2.78;;
22080;SDS011;11207;59.512;18.050;2023-06-14T08:15:47;3.97;;;2.90;;
22080;SDS011;11207;59.512;18.050;2023-06-14T08:18:12;4.05;;;2.55;;
22080;SDS011;11207;59.512;18.050;2023-06-14T08:20:38;4.20;;;3.00;;
22080;SDS011;11207;59.512;18.050;2023-06-14T08:23:04;5.50;;;2.72;;
22080;SDS011;11207;59.512;18.050;2023-06-14T08:25:30;3.03;;;2.72;;
22080;SDS011;11207;59.512;18.050;2023-06-14T08:27:56;3.70;;;2.67;;
22080;SDS011;11207;59.512;18.050;2023-06-14T08:30:22;4.60;;;2.95;;
22080;SDS011;11207;59.512;18.050;2023-06-14T08:32:48;5.90;;;3.10;;
22080;SDS011;11207;59.512;18.050;2023-06-14T08:35:13;5.22;;;2.83;;
22080;SDS011;11207;59.512;18.050;2023-06-14T08:37:42;3.40;;;2.80;;
22080;SDS011;11207;59.512;18.050;2023-06-14T08:40:18;3.22;;;2.90;;
22080;SDS011;11207;59.512;18.050;2023-06-14T08:42:51;3.15;;;2.85;;
22080;SDS011;11207;59.512;18.050;2023-06-14T08:45:22;3.20;;;2.90;;
22080;SDS011;11207;59.512;18.050;2023-06-14T08:47:49;6.20;;;3.05;;
22080;SDS011;11207;59.512;18.050;2023-06-14T08:50:22;3.37;;;2.90;;
22080;SDS011;11207;59.512;18.050;2023-06-14T08:52:55;5.62;;;2.80;;
22080;SDS011;11207;59.512;18.050;2023-06-14T08:55:25;3.15;;;2.80;;
22080;SDS011;11207;59.512;18.050;2023-06-14T09:00:28;7.40;;;2.92;;
22080;SDS011;11207;59.512;18.050;2023-06-14T09:02:53;3.05;;;2.62;;
22080;SDS011;11207;59.512;18.050;2023-06-14T09:05:23;4.35;;;2.92;;
22080;SDS011;11207;59.512;18.050;2023-06-14T09:07:52;3.22;;;2.62;;
22080;SDS011;11207;59.512;18.050;2023-06-14T09:10:21;3.78;;;2.83;;
22080;SDS011;11207;59.512;18.050;2023-06-14T09:12:48;4.03;;;3.10;;
22080;SDS011;11207;59.512;18.050;2023-06-14T09:15:13;4.78;;;2.83;;
22080;SDS011;11207;59.512;18.050;2023-06-14T09:17:40;4.85;;;2.85;;
22080;SDS011;11207;59.512;18.050;2023-06-14T09:20:07;3.17;;;2.90;;
22080;SDS011;11207;59.512;18.050;2023-06-14T09:22:38;3.30;;;3.00;;
22080;SDS011;11207;59.512;18.050;2023-06-14T09:25:04;6.62;;;2.50;;
22080;SDS011;11207;59.512;18.050;2023-06-14T09:27:31;3.15;;;2.85;;
22080;SDS011;11207;59.512;18.050;2023-06-14T09:29:57;3.28;;;2.90;;
22080;SDS011;11207;59.512;18.050;2023-06-14T09:32:23;3.40;;;3.08;;
22080;SDS011;11207;59.512;18.050;2023-06-14T09:34:49;4.85;;;2.85;;
22080;SDS011;11207;59.512;18.050;2023-06-14T09:37:28;3.17;;;2.67;;
22080;SDS011;11207;59.512;18.050;2023-06-14T09:39:55;5.37;;;3.03;;
22080;SDS011;11207;59.512;18.050;2023-06-14T09:42:21;5.07;;;2.83;;
22080;SDS011;11207;59.512;18.050;2023-06-14T09:44:48;3.75;;;2.87;;
22080;SDS011;11207;59.512;18.050;2023-06-14T09:47:15;5.05;;;3.15;;
22080;SDS011;11207;59.512;18.050;2023-06-14T09:49:41;4.85;;;3.17;;
22080;SDS011;11207;59.512;18.050;2023-06-14T09:52:12;4.10;;;2.95;;
22080;SDS011;11207;59.512;18.050;2023-06-14T09:54:44;5.15;;;3.20;;
22080;SDS011;11207;59.512;18.050;2023-06-14T09:57:12;3.45;;;2.72;;
22080;SDS011;11207;59.512;18.050;2023-06-14T09:59:48;4.00;;;3.37;;
22080;SDS011;11207;59.512;18.050;2023-06-14T10:02:18;3.22;;;2.80;;
22080;SDS011;11207;59.512;18.050;2023-06-14T10:04:53;3.53;;;2.92;;
22080;SDS011;11207;59.512;18.050;2023-06-14T10:07:25;4.72;;;3.12;;
22080;SDS011;11207;59.512;18.050;2023-06-14T10:09:55;3.90;;;2.87;;
22080;SDS011;11207;59.512;18.050;2023-06-14T10:12:21;3.60;;;2.87;;
22080;SDS011;11207;59.512;18.050;2023-06-14T10:14:48;4.12;;;3.08;;
22080;SDS011;11207;59.512;18.050;2023-06-14T10:20:30;3.12;;;2.83;;
22080;SDS011;11207;59.512;18.050;2023-06-14T10:23:10;4.32;;;2.70;;
22080;SDS011;11207;59.512;18.050;2023-06-14T10:25:42;4.18;;;2.97;;
22080;SDS011;11207;59.512;18.050;2023-06-14T10:28:15;4.18;;;3.20;;
22080;SDS011;11207;59.512;18.050;2023-06-14T10:31:01;5.65;;;3.17;;
22080;SDS011;11207;59.512;18.050;2023-06-14T10:33:29;6.20;;;3.03;;
22080;SDS011;11207;59.512;18.050;2023-06-14T10:36:07;5.90;;;2.85;;
22080;SDS011;11207;59.512;18.050;2023-06-14T10:39:08;2.58;;;2.37;;
22080;SDS011;11207;59.512;18.050;2023-06-14T10:41:40;6.10;;;3.08;;
22080;SDS011;11207;59.512;18.050;2023-06-14T10:47:00;4.12;;;2.80;;
22080;SDS011;11207;59.512;18.050;2023-06-14T10:55:49;4.68;;;3.20;;
22080;SDS011;11207;59.512;18.050;2023-06-14T10:58:16;5.72;;;3.05;;
22080;SDS011;11207;59.512;18.050;2023-06-14T11:00:41;3.78;;;2.75;;
22080;SDS011;11207;59.512;18.050;2023-06-14T11:06:01;3.33;;;2.90;;
22080;SDS011;11207;59.512;18.050;2023-06-14T11:11:44;4.87;;;2.95;;
22080;SDS011;11207;59.512;18.050;2023-06-14T11:14:13;3.50;;;3.10;;
22080;SDS011;11207;59.512;18.050;2023-06-14T11:16:38;3.30;;;3.00;;
22080;SDS011;11207;59.512;18.050;2023-06-14T11:19:05;10.15;;;3.30;;
22080;SDS011;11207;59.512;18.050;2023-06-14T11:21:34;4.12;;;3.10;;
22080;SDS011;11207;59.512;18.050;2023-06-14T11:24:09;4.40;;;3.35;;
22080;SDS011;11207;59.512;18.050;2023-06-14T11:26:37;4.40;;;2.60;;
22080;SDS011;11207;59.512;18.050;2023-06-14T11:29:03;5.18;;;3.00;;
22080;SDS011;11207;59.512;18.050;2023-06-14T11:31:29;3.40;;;3.00;;
22080;SDS011;11207;59.512;18.050;2023-06-14T11:33:58;4.55;;;3.33;;
22080;SDS011;11207;59.512;18.050;2023-06-14T11:36:28;4.62;;;3.45;;
22080;SDS011;11207;59.512;18.050;2023-06-14T11:39:01;4.07;;;2.90;;
22080;SDS011;11207;59.512;18.050;2023-06-14T11:41:36;3.17;;;2.87;;
22080;SDS011;11207;59.512;18.050;2023-06-14T11:44:03;3.85;;;2.80;;
22080;SDS011;11207;59.512;18.050;2023-06-14T11:46:29;9.38;;;3.00;;
22080;SDS011;11207;59.512;18.050;2023-06-14T11:48:55;3.65;;;3.05;;
22080;SDS011;11207;59.512;18.050;2023-06-14T11:51:20;3.42;;;3.05;;
22080;SDS011;11207;59.512;18.050;2023-06-14T11:53:46;6.75;;;3.03;;
22080;SDS011;11207;59.512;18.050;2023-06-14T11:56:12;8.57;;;2.90;;
22080;SDS011;11207;59.512;18.050;2023-06-14T11:58:38;4.30;;;2.90;;
22080;SDS011;11207;59.512;18.050;2023-06-14T12:01:05;3.20;;;2.70;;
22080;SDS011;11207;59.512;18.050;2023-06-14T12:03:30;3.97;;;2.87;;
22080;SDS011;11207;59.512;18.050;2023-06-14T12:06:06;3.92;;;2.80;;
22080;SDS011;11207;59.512;18.050;2023-06-14T12:08:35;4.28;;;2.65;;
22080;SDS011;11207;59.512;18.050;2023-06-14T12:11:12;10.15;;;3.62;;
22080;SDS011;11207;59.512;18.050;2023-06-14T12:13:42;4.12;;;2.92;;
22080;SDS011;11207;59.512;18.050;2023-06-14T12:16:08;4.80;;;3.05;;
22080;SDS011;11207;59.512;18.050;2023-06-14T12:18:35;5.53;;;3.50;;
22080;SDS011;11207;59.512;18.050;2023-06-14T12:21:27;4.30;;;2.97;;
22080;SDS011;11207;59.512;18.050;2023-06-14T12:23:53;4.50;;;3.08;;
22080;SDS011;11207;59.512;18.050;2023-06-14T12:26:19;4.22;;;3.00;;
22080;SDS011;11207;59.512;18.050;2023-06-14T12:28:45;4.65;;;3.03;;
22080;SDS011;11207;59.512;18.050;2023-06-14T12:31:13;3.50;;;2.72;;
22080;SDS011;11207;59.512;18.050;2023-06-14T12:33:39;3.83;;;3.10;;
22080;SDS011;11207;59.512;18.050;2023-06-14T12:36:06;4.68;;;2.62;;
22080;SDS011;11207;59.512;18.050;2023-06-14T12:38:33;3.65;;;2.47;;
22080;SDS011;11207;59.512;18.050;2023-06-14T12:40:59;3.40;;;2.65;;
22080;SDS011;11207;59.512;18.050;2023-06-14T12:43:27;4.12;;;2.80;;
22080;SDS011;11207;59.512;18.050;2023-06-14T12:45:56;9.00;;;2.75;;
22080;SDS011;11207;59.512;18.050;2023-06-14T12:48:22;4.75;;;2.92;;
22080;SDS011;11207;59.512;18.050;2023-06-14T12:50:47;5.15;;;2.78;;
22080;SDS011;11207;59.512;18.050;2023-06-14T12:53:13;5.07;;;2.95;;
22080;SDS011;11207;59.512;18.050;2023-06-14T12:55:39;5.10;;;2.85;;
22080;SDS011;11207;59.512;18.050;2023-06-14T12:58:05;5.47;;;2.80;;
22080;SDS011;11207;59.512;18.050;2023-06-14T13:00:31;3.80;;;3.00;;
22080;SDS011;11207;59.512;18.050;2023-06-14T13:02:56;4.07;;;2.60;;
22080;SDS011;11207;59.512;18.050;2023-06-14T13:05:23;6.68;;;2.92;;
22080;SDS011;11207;59.512;18.050;2023-06-14T13:07:49;6.55;;;3.42;;
22080;SDS011;11207;59.512;18.050;2023-06-14T13:10:15;4.10;;;3.22;;
22080;SDS011;11207;59.512;18.050;2023-06-14T13:12:41;4.68;;;3.00;;
22080;SDS011;11207;59.512;18.050;2023-06-14T13:15:07;5.50;;;3.15;;
22080;SDS011;11207;59.512;18.050;2023-06-14T13:17:33;8.57;;;2.90;;
22080;SDS011;11207;59.512;18.050;2023-06-14T13:20:04;5.05;;;3.37;;
22080;SDS011;11207;59.512;18.050;2023-06-14T13:22:30;4.25;;;3.20;;
22080;SDS011;11207;59.512;18.050;2023-06-14T13:24:59;6.45;;;3.20;;
22080;SDS011;11207;59.512;18.050;2023-06-14T13:27:25;4.57;;;3.45;;
22080;SDS011;11207;59.512;18.050;2023-06-14T13:29:51;5.12;;;2.90;;
22080;SDS011;11207;59.512;18.050;2023-06-14T13:32:17;3.78;;;2.83;;
22080;SDS011;11207;59.512;18.050;2023-06-14T13:34:43;3.80;;;3.03;;
22080;SDS011;11207;59.512;18.050;2023-06-14T13:37:08;7.12;;;3.72;;
22080;SDS011;11207;59.512;18.050;2023-06-14T13:39:34;3.20;;;2.80;;
22080;SDS011;11207;59.512;18.050;2023-06-14T13:42:02;7.10;;;3.40;;
22080;SDS011;11207;59.512;18.050;2023-06-14T13:44:28;6.18;;;3.40;;
22080;SDS011;11207;59.512;18.050;2023-06-14T13:46:54;4.90;;;2.90;;
22080;SDS011;11207;59.512;18.050;2023-06-14T13:49:19;3.42;;;2.92;;
22080;SDS011;11207;59.512;18.050;2023-06-14T13:51:45;7.20;;;3.53;;
22080;SDS011;11207;59.512;18.050;2023-06-14T13:54:12;4.68;;;3.35;;
22080;SDS011;11207;59.512;18.050;2023-06-14T13:56:40;4.20;;;3.12;;
22080;SDS011;11207;59.512;18.050;2023-06-14T13:59:06;5.72;;;3.70;;
22080;SDS011;11207;59.512;18.050;2023-06-14T14:01:31;4.70;;;3.60;;
22080;SDS011;11207;59.512;18.050;2023-06-14T14:03:57;6.37;;;3.50;;
22080;SDS011;11207;59.512;18.050;2023-06-14T14:06:26;6.40;;;3.28;;
22080;SDS011;11207;59.512;18.050;2023-06-14T14:08:51;5.18;;;3.10;;
22080;SDS011;11207;59.512;18.050;2023-06-14T14:11:17;5.15;;;3.35;;
22080;SDS011;11207;59.512;18.050;2023-06-14T14:13:43;3.87;;;3.28;;
22080;SDS011;11207;59.512;18.050;2023-06-14T14:16:09;4.60;;;3.75;;
22080;SDS011;11207;59.512;18.050;2023-06-14T14:18:35;3.75;;;3.20;;
22080;SDS011;11207;59.512;18.050;2023-06-14T14:21:02;5.20;;;3.67;;
22080;SDS011;11207;59.512;18.050;2023-06-14T14:23:28;6.22;;;3.47;;
22080;SDS011;11207;59.512;18.050;2023-06-14T14:25:54;5.05;;;3.67;;
22080;SDS011;11207;59.512;18.050;2023-06-14T14:28:20;5.18;;;3.12;;
22080;SDS011;11207;59.512;18.050;2023-06-14T14:30:46;5.30;;;3.90;;
22080;SDS011;11207;59.512;18.050;2023-06-14T14:33:12;6.70;;;3.12;;
22080;SDS011;11207;59.512;18.050;2023-06-14T14:35:46;4.57;;;3.35;;
22080;SDS011;11207;59.512;18.050;2023-06-14T14:38:13;4.28;;;3.35;;
22080;SDS011;11207;59.512;18.050;2023-06-14T14:40:43;7.62;;;2.95;;
22080;SDS011;11207;59.512;18.050;2023-06-14T14:43:09;4.05;;;3.40;;
22080;SDS011;11207;59.512;18.050;2023-06-14T14:45:37;4.50;;;3.20;;
22080;SDS011;11207;59.512;18.050;2023-06-14T14:48:03;4.20;;;3.33;;
22080;SDS011;11207;59.512;18.050;2023-06-14T14:50:29;7.10;;;3.37;;
22080;SDS011;11207;59.512;18.050;2023-06-14T14:52:55;3.55;;;3.12;;
22080;SDS011;11207;59.512;18.050;2023-06-14T14:55:21;7.68;;;4.03;;
22080;SDS011;11207;59.512;18.050;2023-06-14T14:57:47;6.18;;;3.45;;
22080;SDS011;11207;59.512;18.050;2023-06-14T15:00:13;4.87;;;3.20;;
22080;SDS011;11207;59.512;18.050;2023-06-14T15:02:39;3.40;;;3.10;;